Time;durP1;ratioP1;P1;durP2;ratioP2;P2;SDS_P1;SDS_P2;PMS_P1;PMS_P2;Temp;Humidity;BMP_temperature;BMP_pressure;BME280_temperature;BME280_humidity;BME280_pressure;Samples;Min_cycle;Max_cycle;Signal;HPM_P1;HPM_P2
2024/02/13 00:02:02;;;;;;;13.10;8.70;;;5.70;99.90;;;;;;5159058;27;20448;-78
2024/02/13 00:04:32;;;;;;;11.07;8.10;;;5.70;99.90;;;;;;5177650;27;20459;-77
2024/02/13 00:07:00;;;;;;;10.53;8.17;;;5.60;99.90;;;;;;5158700;27;20466;-77
2024/02/13 00:09:30;;;;;;;11.07;8.50;;;5.60;99.90;;;;;;5159123;27;20489;-76
2024/02/13 00:11:58;;;;;;;14.63;8.30;;;5.60;99.90;;;;;;5158577;27;20548;-77
2024/02/13 00:14:26;;;;;;;9.83;8.43;;;5.60;99.90;;;;;;5177312;27;20432;-78
2024/02/13 00:16:56;;;;;;;13.00;8.13;;;5.60;99.90;;;;;;5177285;27;20428;-76
2024/02/13 00:19:25;;;;;;;14.13;8.63;;;5.60;99.90;;;;;;5158902;27;20453;-77
2024/02/13 00:21:53;;;;;;;9.60;7.30;;;5.60;99.90;;;;;;5158542;27;20456;-77
2024/02/13 00:24:22;;;;;;;12.93;8.67;;;5.60;99.90;;;;;;5158519;27;20953;-77
2024/02/13 00:26:52;;;;;;;12.97;8.27;;;5.60;99.90;;;;;;5158262;27;20500;-77
2024/02/13 00:29:20;;;;;;;8.93;7.77;;;5.60;99.90;;;;;;5158493;27;20439;-77
2024/02/13 00:31:50;;;;;;;18.23;8.57;;;5.60;99.90;;;;;;5158536;27;20535;-77
2024/02/13 00:34:21;;;;;;;11.00;8.83;;;5.60;99.90;;;;;;5177299;27;20436;-77
2024/02/13 00:36:50;;;;;;;12.73;7.80;;;5.60;99.90;;;;;;5176497;27;20411;-77
2024/02/13 00:39:19;;;;;;;12.90;8.03;;;5.60;99.90;;;;;;5157976;27;20463;-77
2024/02/13 00:41:48;;;;;;;11.60;7.30;;;5.70;99.90;;;;;;5158419;27;20500;-77
2024/02/13 00:44:19;;;;;;;11.47;8.00;;;5.70;99.90;;;;;;5158204;27;20823;-77
2024/02/13 00:46:48;;;;;;;15.47;8.67;;;5.70;99.90;;;;;;5157891;27;20453;-77
2024/02/13 00:49:16;;;;;;;12.23;7.50;;;5.70;99.90;;;;;;5176751;27;20452;-77
2024/02/13 00:51:45;;;;;;;7.20;6.37;;;5.70;99.90;;;;;;5158283;27;20484;-77
2024/02/13 00:54:14;;;;;;;11.37;7.73;;;5.70;99.90;;;;;;5176823;27;20434;-77
2024/02/13 00:56:43;;;;;;;11.33;7.30;;;5.70;99.90;;;;;;5157845;27;20465;-77
2024/02/13 00:59:12;;;;;;;11.07;7.13;;;5.70;99.90;;;;;;5157848;27;20450;-77
2024/02/13 01:01:42;;;;;;;8.83;6.70;;;5.70;99.90;;;;;;5158251;27;20453;-77
2024/02/13 01:04:11;;;;;;;9.37;6.40;;;5.70;99.90;;;;;;5176730;27;20474;-77
2024/02/13 01:06:39;;;;;;;9.50;6.60;;;5.70;99.90;;;;;;5157856;27;20467;-77
2024/02/13 01:09:08;;;;;;;13.97;7.53;;;5.70;99.90;;;;;;5157930;27;20441;-77
2024/02/13 01:11:36;;;;;;;9.60;6.83;;;5.70;99.90;;;;;;5158307;27;20436;-76
2024/02/13 01:14:05;;;;;;;11.33;6.20;;;5.70;99.90;;;;;;5157890;27;20476;-78
2024/02/13 01:16:33;;;;;;;9.27;6.33;;;5.70;99.90;;;;;;5158972;27;21022;-78
2024/02/13 01:19:03;;;;;;;9.07;7.10;;;5.70;99.90;;;;;;5159315;27;20442;-78
2024/02/13 01:21:32;;;;;;;10.50;7.50;;;5.70;99.90;;;;;;5177949;27;20423;-78
2024/02/13 01:24:00;;;;;;;9.60;7.40;;;5.60;99.90;;;;;;5159742;27;20449;-78
2024/02/13 01:26:29;;;;;;;10.07;6.93;;;5.60;99.90;;;;;;5160776;27;20472;-78
2024/02/13 01:28:57;;;;;;;8.87;6.30;;;5.60;99.90;;;;;;5159632;27;20430;-78
2024/02/13 01:31:26;;;;;;;9.10;7.20;;;5.60;99.90;;;;;;5159366;27;20510;-78
2024/02/13 01:33:54;;;;;;;15.07;8.77;;;5.60;99.90;;;;;;5158909;27;20450;-78
2024/02/13 01:36:24;;;;;;;13.90;8.83;;;5.60;99.90;;;;;;5158618;27;20472;-77
2024/02/13 01:38:53;;;;;;;8.00;6.77;;;5.60;99.90;;;;;;5177460;27;20445;-77
2024/02/13 01:41:21;;;;;;;9.20;7.13;;;5.60;99.90;;;;;;5158856;27;20440;-77
2024/02/13 01:43:50;;;;;;;9.83;7.73;;;5.60;99.90;;;;;;5158602;27;20453;-77
2024/02/13 01:46:19;;;;;;;8.10;7.30;;;5.60;99.90;;;;;;5158552;27;20453;-76
2024/02/13 01:48:48;;;;;;;9.13;7.23;;;5.60;99.90;;;;;;5161548;27;20464;-77
2024/02/13 01:51:17;;;;;;;11.20;7.00;;;5.60;99.90;;;;;;5162953;27;20445;-77
2024/02/13 01:53:47;;;;;;;9.13;8.10;;;5.60;99.90;;;;;;5162547;27;20886;-77
2024/02/13 01:56:16;;;;;;;10.53;7.90;;;5.60;99.90;;;;;;5181224;27;20873;-77
2024/02/13 01:58:44;;;;;;;11.07;8.50;;;5.70;99.90;;;;;;5180835;27;20477;-77
2024/02/13 02:01:14;;;;;;;9.53;8.50;;;5.70;99.90;;;;;;5161939;27;20491;-78
2024/02/13 02:03:43;;;;;;;8.50;7.70;;;5.60;99.90;;;;;;5162171;27;20454;-78
2024/02/13 02:06:12;;;;;;;12.67;8.00;;;5.70;99.90;;;;;;5161597;27;20459;-77
2024/02/13 02:08:41;;;;;;;12.60;10.17;;;5.70;99.90;;;;;;5180491;27;20458;-78
2024/02/13 02:11:11;;;;;;;13.20;10.50;;;5.60;99.90;;;;;;5161852;27;20436;-77
2024/02/13 02:13:40;;;;;;;11.03;9.80;;;5.70;99.90;;;;;;5161963;27;20488;-77
2024/02/13 02:16:08;;;;;;;12.00;9.83;;;5.60;99.90;;;;;;5161555;27;20465;-77
2024/02/13 02:18:36;;;;;;;12.37;10.23;;;5.60;99.90;;;;;;5161326;27;20503;-78
2024/02/13 02:21:05;;;;;;;13.33;10.57;;;5.60;99.90;;;;;;5180290;27;20433;-77
2024/02/13 02:23:34;;;;;;;13.33;10.47;;;5.60;99.90;;;;;;5161610;27;21013;-77
2024/02/13 02:26:06;;;;;;;16.67;12.77;;;5.60;99.90;;;;;;5161525;27;20465;-77
2024/02/13 02:28:35;;;;;;;15.40;11.70;;;5.60;99.90;;;;;;5161497;27;20476;-78
2024/02/13 02:31:05;;;;;;;15.50;10.83;;;5.60;99.90;;;;;;5161334;27;20834;-78
2024/02/13 02:33:33;;;;;;;13.00;11.67;;;5.60;99.90;;;;;;5161373;27;20997;-77
2024/02/13 02:36:01;;;;;;;17.13;12.73;;;5.60;99.90;;;;;;5161702;27;20470;-78
2024/02/13 02:38:30;;;;;;;17.53;13.13;;;5.60;99.90;;;;;;5161468;27;20481;-78
2024/02/13 02:40:58;;;;;;;16.13;12.17;;;5.60;99.90;;;;;;5180098;27;20941;-78
2024/02/13 02:43:28;;;;;;;18.93;13.57;;;5.60;99.90;;;;;;5161463;27;20874;-78
2024/02/13 02:45:56;;;;;;;16.73;12.87;;;5.60;99.90;;;;;;5180195;27;20456;-77
2024/02/13 02:48:24;;;;;;;18.10;13.60;;;5.50;99.90;;;;;;5160893;27;20877;-77
2024/02/13 02:50:53;;;;;;;16.60;12.90;;;5.50;99.90;;;;;;5180265;27;20771;-77
2024/02/13 02:53:23;;;;;;;15.40;12.87;;;5.50;99.90;;;;;;5160993;27;20449;-77
2024/02/13 02:55:52;;;;;;;15.83;12.83;;;5.50;99.90;;;;;;5161862;27;20463;-77
2024/02/13 02:58:20;;;;;;;14.97;13.37;;;5.50;99.90;;;;;;5161284;27;20444;-77
2024/02/13 03:00:52;;;;;;;16.70;13.83;;;5.50;99.90;;;;;;5161286;27;20441;-78
2024/02/13 03:03:20;;;;;;;16.27;14.27;;;5.50;99.90;;;;;;5161326;27;20449;-77
2024/02/13 03:05:51;;;;;;;16.17;14.47;;;5.50;99.90;;;;;;5161521;27;20454;-76
2024/02/13 03:08:20;;;;;;;19.23;14.80;;;5.50;99.90;;;;;;5164648;27;20467;-78
2024/02/13 03:10:49;;;;;;;15.37;13.70;;;5.50;99.90;;;;;;5165760;27;20428;-78
2024/02/13 03:13:17;;;;;;;17.63;14.23;;;5.50;99.90;;;;;;5165506;27;20449;-78
2024/02/13 03:15:46;;;;;;;18.10;14.77;;;5.50;99.90;;;;;;5164376;27;20515;-78
2024/02/13 03:18:15;;;;;;;16.33;14.43;;;5.40;99.90;;;;;;5164266;27;20453;-78
2024/02/13 03:20:44;;;;;;;16.23;14.40;;;5.40;99.90;;;;;;5164079;27;21014;-78
2024/02/13 03:23:13;;;;;;;23.03;16.10;;;5.40;99.90;;;;;;5182451;27;20459;-78
2024/02/13 03:25:41;;;;;;;18.27;16.40;;;5.40;99.90;;;;;;5181846;27;20466;-78
2024/02/13 03:28:09;;;;;;;17.47;15.20;;;5.30;99.90;;;;;;5162380;27;20490;-78
2024/02/13 03:30:38;;;;;;;18.40;14.87;;;5.30;99.90;;;;;;5162251;27;20478;-78
2024/02/13 03:33:06;;;;;;;17.37;15.13;;;5.30;99.90;;;;;;5161959;27;20449;-78
2024/02/13 03:35:35;;;;;;;17.13;14.20;;;5.30;99.90;;;;;;5162274;27;20463;-77
2024/02/13 03:38:04;;;;;;;16.23;14.60;;;5.30;99.90;;;;;;5162064;27;20877;-77
2024/02/13 03:40:32;;;;;;;17.77;14.70;;;5.30;99.90;;;;;;5161325;27;20444;-78
2024/02/13 03:43:01;;;;;;;20.27;14.47;;;5.20;99.90;;;;;;5160951;27;20528;-77
2024/02/13 03:45:29;;;;;;;18.47;15.40;;;5.20;99.90;;;;;;5179671;27;20448;-78
2024/02/13 03:47:58;;;;;;;16.20;14.37;;;5.20;99.90;;;;;;5161215;27;20548;-78
2024/02/13 03:50:27;;;;;;;18.53;15.23;;;5.20;99.90;;;;;;5160787;27;20451;-78
2024/02/13 03:52:57;;;;;;;17.20;15.47;;;5.20;99.90;;;;;;5161318;27;20452;-77
2024/02/13 03:55:25;;;;;;;18.73;15.57;;;5.10;99.90;;;;;;5159447;27;20484;-77
2024/02/13 03:57:53;;;;;;;21.13;16.23;;;5.20;99.90;;;;;;5159189;27;20452;-77
2024/02/13 04:00:22;;;;;;;18.20;16.30;;;5.10;99.90;;;;;;5159166;27;20544;-77
2024/02/13 04:02:51;;;;;;;17.07;14.53;;;5.10;99.90;;;;;;5158667;27;20540;-77
2024/02/13 04:05:19;;;;;;;22.60;17.30;;;5.10;99.90;;;;;;5159531;27;20461;-77
2024/02/13 04:07:48;;;;;;;17.33;14.77;;;5.00;99.90;;;;;;5178324;27;20539;-77
2024/02/13 04:10:17;;;;;;;15.93;14.20;;;5.00;99.90;;;;;;5159881;27;20530;-77
2024/02/13 04:12:46;;;;;;;19.03;16.90;;;5.00;99.90;;;;;;5160558;27;20440;-77
2024/02/13 04:15:14;;;;;;;18.40;16.43;;;5.00;99.90;;;;;;5160377;27;20583;-77
2024/02/13 04:17:42;;;;;;;21.33;17.87;;;4.90;99.90;;;;;;5179021;27;20441;-77
2024/02/13 04:20:12;;;;;;;20.90;18.17;;;5.00;99.90;;;;;;5179700;27;20425;-78
2024/02/13 04:22:42;;;;;;;20.03;16.03;;;4.90;99.90;;;;;;5179763;27;20787;-77
2024/02/13 04:25:11;;;;;;;18.50;16.47;;;4.90;99.90;;;;;;5160155;27;20814;-77
2024/02/13 04:27:41;;;;;;;19.70;17.60;;;4.90;99.90;;;;;;5159716;27;20563;-77
2024/02/13 04:30:12;;;;;;;20.00;17.90;;;4.90;99.90;;;;;;5160121;27;20517;-77
2024/02/13 04:32:41;;;;;;;24.43;19.33;;;4.90;99.90;;;;;;5160551;27;20507;-77
2024/02/13 04:35:09;;;;;;;20.93;18.80;;;4.80;99.90;;;;;;5178644;27;20449;-77
2024/02/13 04:37:38;;;;;;;21.43;18.83;;;4.80;99.90;;;;;;5159599;27;20444;-78
2024/02/13 04:40:08;;;;;;;23.80;19.13;;;4.80;99.90;;;;;;5159487;27;20445;-77
2024/02/13 04:42:41;;;;;;;22.70;20.13;;;4.80;99.90;;;;;;5159416;27;20432;-78
2024/02/13 04:45:10;;;;;;;22.23;19.63;;;4.80;99.90;;;;;;5178273;27;20501;-77
2024/02/13 04:47:39;;;;;;;26.00;22.33;;;4.80;99.90;;;;;;5159744;27;20918;-78
2024/02/13 04:50:08;;;;;;;24.00;21.30;;;4.80;99.90;;;;;;5177826;27;20647;-78
2024/02/13 04:52:40;;;;;;;25.67;20.47;;;4.80;99.90;;;;;;5177509;27;20508;-77
2024/02/13 04:55:10;;;;;;;24.80;22.13;;;4.80;99.90;;;;;;5158691;27;20835;-77
2024/02/13 04:57:40;;;;;;;24.83;21.63;;;4.70;99.90;;;;;;5158756;27;20881;-77
2024/02/13 05:00:18;;;;;;;27.57;22.20;;;4.70;99.90;;;;;;5158834;27;20433;-77
2024/02/13 05:02:50;;;;;;;28.73;22.30;;;4.70;99.90;;;;;;5177725;27;20445;-78
2024/02/13 05:08:06;;;;;;;25.80;22.07;;;4.70;99.90;;;;;;5158696;27;20921;-77
2024/02/13 05:10:34;;;;;;;24.90;22.30;;;4.70;99.90;;;;;;5159195;27;20461;-77
2024/02/13 05:13:04;;;;;;;25.90;22.83;;;4.70;99.90;;;;;;5158903;27;20444;-77
2024/02/13 05:15:33;;;;;;;26.33;23.57;;;4.70;99.90;;;;;;5159151;27;20516;-78
2024/02/13 05:18:01;;;;;;;26.53;23.83;;;4.70;99.90;;;;;;5159193;27;20451;-77
2024/02/13 05:20:30;;;;;;;26.83;23.93;;;4.70;99.90;;;;;;5177454;27;20443;-77
2024/02/13 05:22:59;;;;;;;28.90;25.27;;;4.70;99.90;;;;;;5159191;27;20449;-76
2024/02/13 05:25:27;;;;;;;28.50;24.77;;;4.70;99.90;;;;;;5162455;27;20461;-77
2024/02/13 05:27:56;;;;;;;27.67;24.77;;;4.70;99.90;;;;;;5162338;27;20463;-77
2024/02/13 05:30:25;;;;;;;29.83;26.47;;;4.70;99.90;;;;;;5181199;27;21019;-77
2024/02/13 05:32:53;;;;;;;27.93;25.03;;;4.70;99.90;;;;;;5162599;27;20492;-76
2024/02/13 05:35:22;;;;;;;29.30;26.07;;;4.70;99.90;;;;;;5162121;27;20537;-77
2024/02/13 05:37:51;;;;;;;31.90;25.77;;;4.70;99.90;;;;;;5162461;27;20495;-77
2024/02/13 05:40:20;;;;;;;31.00;26.73;;;4.70;99.90;;;;;;5180744;27;20439;-77
2024/02/13 05:42:48;;;;;;;29.97;26.87;;;4.60;99.90;;;;;;5180662;27;20432;-77
2024/02/13 05:45:16;;;;;;;30.87;27.60;;;4.60;99.90;;;;;;5181032;27;20457;-77
2024/02/13 05:47:48;;;;;;;32.07;28.67;;;4.60;99.90;;;;;;5181289;27;20532;-77
2024/02/13 05:50:18;;;;;;;29.73;25.93;;;4.60;99.90;;;;;;5162206;27;20907;-77
2024/02/13 05:52:47;;;;;;;29.10;26.10;;;4.60;99.90;;;;;;5162233;27;20804;-77
2024/02/13 05:55:16;;;;;;;29.47;26.53;;;4.60;99.90;;;;;;5161728;27;20467;-77
2024/02/13 05:57:44;;;;;;;31.87;28.50;;;4.60;99.90;;;;;;5180799;27;20482;-78
2024/02/13 06:00:14;;;;;;;33.20;29.80;;;4.60;99.90;;;;;;5161901;27;20438;-77
2024/02/13 06:02:43;;;;;;;31.77;28.50;;;4.60;99.90;;;;;;5181251;27;20467;-77
2024/02/13 06:05:14;;;;;;;30.27;27.07;;;4.60;99.90;;;;;;5161168;27;20464;-77
2024/02/13 06:07:44;;;;;;;28.90;25.80;;;4.60;99.90;;;;;;5180130;27;20417;-77
2024/02/13 06:10:12;;;;;;;28.57;25.50;;;4.60;99.90;;;;;;5161369;27;20460;-76
2024/02/13 06:12:40;;;;;;;31.50;28.40;;;4.60;99.90;;;;;;5180489;27;20457;-76
2024/02/13 06:15:09;;;;;;;32.57;29.20;;;4.60;99.90;;;;;;5179962;27;20456;-78
2024/02/13 06:17:38;;;;;;;32.30;28.53;;;4.50;99.90;;;;;;5161339;27;20475;-77
2024/02/13 06:20:08;;;;;;;41.40;29.07;;;4.60;99.90;;;;;;5179968;27;20528;-77
2024/02/13 06:22:38;;;;;;;29.93;26.70;;;4.60;99.90;;;;;;5161113;27;20475;-77
2024/02/13 06:25:08;;;;;;;29.50;26.40;;;4.50;99.90;;;;;;5161402;27;20468;-77
2024/02/13 06:27:37;;;;;;;31.47;28.13;;;4.50;99.90;;;;;;5161142;27;20458;-78
2024/02/13 06:30:07;;;;;;;32.23;27.80;;;4.50;99.90;;;;;;5161171;27;20464;-77
2024/02/13 06:32:35;;;;;;;33.53;29.70;;;4.50;99.90;;;;;;5179920;27;21020;-77
2024/02/13 06:35:04;;;;;;;35.87;28.87;;;4.50;99.90;;;;;;5159876;27;20472;-77
2024/02/13 06:37:32;;;;;;;32.40;28.93;;;4.50;99.90;;;;;;5160668;27;20493;-77
2024/02/13 06:40:03;;;;;;;31.53;28.23;;;4.50;99.90;;;;;;5179159;27;20464;-77
2024/02/13 06:42:31;;;;;;;32.33;28.83;;;4.50;99.90;;;;;;5160345;27;20475;-77
2024/02/13 06:45:00;;;;;;;31.93;28.33;;;4.50;99.90;;;;;;5160105;27;20516;-76
2024/02/13 06:47:28;;;;;;;32.20;29.00;;;4.50;99.90;;;;;;5160121;27;20466;-77
2024/02/13 06:50:00;;;;;;;33.23;29.73;;;4.50;99.90;;;;;;5160251;27;20471;-77
2024/02/13 06:52:29;;;;;;;29.70;26.63;;;4.50;99.90;;;;;;5160318;27;20432;-76
2024/02/13 06:54:57;;;;;;;33.20;29.70;;;4.50;99.90;;;;;;5160000;27;20467;-77
2024/02/13 06:57:27;;;;;;;33.90;26.93;;;4.50;99.90;;;;;;5178903;27;20826;-77
2024/02/13 06:59:55;;;;;;;33.70;28.70;;;4.50;99.90;;;;;;5160316;27;20847;-76
2024/02/13 07:02:25;;;;;;;31.13;27.53;;;4.50;99.90;;;;;;5159950;27;20505;-77
2024/02/13 07:04:53;;;;;;;33.63;29.13;;;4.50;99.90;;;;;;5160565;27;20496;-77
2024/02/13 07:07:21;;;;;;;33.00;29.60;;;4.50;99.90;;;;;;5159874;27;20447;-77
2024/02/13 07:10:06;;;;;;;33.90;30.50;;;4.50;99.90;;;;;;5179565;27;20453;-77
2024/02/13 07:12:36;;;;;;;33.73;29.97;;;4.50;99.90;;;;;;5161717;27;20512;-77
2024/02/13 07:15:06;;;;;;;37.63;31.00;;;4.50;99.90;;;;;;5162250;27;20835;-78
2024/02/13 07:17:35;;;;;;;35.40;31.73;;;4.50;99.90;;;;;;5181007;27;20424;-79
2024/02/13 07:20:23;;;;;;;34.90;31.23;;;4.50;99.90;;;;;;5162369;27;20438;-77
2024/02/13 07:22:52;;;;;;;34.93;31.30;;;4.50;99.90;;;;;;5162031;27;20440;-78
2024/02/13 07:25:20;;;;;;;34.30;30.40;;;4.50;99.90;;;;;;5161708;27;20460;-78
2024/02/13 07:27:50;;;;;;;36.00;32.00;;;4.60;99.90;;;;;;5180035;27;20455;-79
2024/02/13 07:30:19;;;;;;;35.80;32.00;;;4.60;99.90;;;;;;5161203;27;21004;-78
2024/02/13 07:32:47;;;;;;;34.47;30.80;;;4.60;99.90;;;;;;5161739;27;20437;-77
2024/02/13 07:35:16;;;;;;;38.57;34.50;;;4.60;99.90;;;;;;5161209;27;20565;-78
2024/02/13 07:37:44;;;;;;;39.17;34.83;;;4.60;99.90;;;;;;5161610;27;20452;-78
2024/02/13 07:40:14;;;;;;;41.30;35.50;;;4.60;99.90;;;;;;5161358;27;20461;-78
2024/02/13 07:42:42;;;;;;;35.27;31.77;;;4.70;99.90;;;;;;5161536;27;20448;-78
2024/02/13 07:45:12;;;;;;;39.60;35.57;;;4.70;99.90;;;;;;5160607;27;20582;-77
2024/02/13 07:47:41;;;;;;;39.57;34.53;;;4.70;99.90;;;;;;5160873;27;20438;-78
2024/02/13 07:50:11;;;;;;;39.40;35.23;;;4.80;99.90;;;;;;5161112;27;20480;-77
2024/02/13 07:52:39;;;;;;;39.60;33.73;;;4.80;99.90;;;;;;5161082;27;20478;-78
2024/02/13 07:55:08;;;;;;;37.87;34.03;;;4.80;99.90;;;;;;5180329;27;20485;-78
2024/02/13 07:57:38;;;;;;;39.93;35.93;;;4.80;99.90;;;;;;5180219;27;20466;-78
2024/02/13 08:00:08;;;;;;;39.43;35.10;;;4.90;99.90;;;;;;5161601;27;20484;-78
2024/02/13 08:02:38;;;;;;;36.37;32.80;;;4.90;99.90;;;;;;5161656;27;20441;-77
2024/02/13 08:05:07;;;;;;;39.00;34.83;;;4.90;99.90;;;;;;5162115;27;20465;-78
2024/02/13 08:07:35;;;;;;;37.43;33.73;;;4.90;99.90;;;;;;5180362;27;20421;-77
2024/02/13 08:10:06;;;;;;;39.37;35.47;;;4.90;99.90;;;;;;5161051;27;20452;-77
2024/02/13 08:12:35;;;;;;;35.90;32.30;;;4.90;99.90;;;;;;5161062;27;20807;-78
2024/02/13 08:15:06;;;;;;;39.00;34.87;;;5.00;99.90;;;;;;5180447;27;20495;-78
2024/02/13 08:17:34;;;;;;;37.53;34.00;;;5.00;99.90;;;;;;5161083;27;20444;-78
2024/02/13 08:20:06;;;;;;;36.37;32.60;;;5.00;99.90;;;;;;5161427;27;20433;-78
2024/02/13 08:22:34;;;;;;;37.90;34.03;;;5.00;99.90;;;;;;5161181;27;20459;-77
2024/02/13 08:25:02;;;;;;;37.43;33.83;;;5.00;99.90;;;;;;5161027;27;20456;-78
2024/02/13 08:27:31;;;;;;;39.07;34.87;;;5.00;99.90;;;;;;5160815;27;20820;-77
2024/02/13 08:29:59;;;;;;;37.30;33.67;;;5.10;99.90;;;;;;5180117;27;20432;-77
2024/02/13 08:32:28;;;;;;;39.53;35.63;;;5.10;99.90;;;;;;5179664;27;21071;-78
2024/02/13 08:34:59;;;;;;;37.40;33.70;;;5.10;99.90;;;;;;5161529;27;20522;-78
2024/02/13 08:37:29;;;;;;;38.33;34.40;;;5.10;99.90;;;;;;5160808;27;20429;-78
2024/02/13 08:39:58;;;;;;;35.67;32.07;;;5.20;99.90;;;;;;5160513;27;20452;-77
2024/02/13 08:42:26;;;;;;;36.13;32.60;;;5.20;99.90;;;;;;5159192;27;20432;-77
2024/02/13 08:44:56;;;;;;;37.47;34.00;;;5.20;99.90;;;;;;5177117;27;20841;-78
2024/02/13 08:47:24;;;;;;;35.80;32.30;;;5.20;99.90;;;;;;5178675;27;20429;-76
2024/02/13 08:49:53;;;;;;;36.33;33.00;;;5.30;99.90;;;;;;5161360;27;20438;-78
2024/02/13 08:52:22;;;;;;;36.83;33.37;;;5.30;99.90;;;;;;5159771;27;20461;-78
2024/02/13 08:54:52;;;;;;;36.23;32.47;;;5.30;99.90;;;;;;5160035;27;20989;-78
2024/02/13 08:57:20;;;;;;;35.17;31.77;;;5.40;99.90;;;;;;5159626;27;20493;-77
2024/02/13 08:59:49;;;;;;;36.37;33.20;;;5.40;99.90;;;;;;5160106;27;20469;-78
2024/02/13 09:02:17;;;;;;;32.83;29.73;;;5.40;99.90;;;;;;5159890;27;20449;-78
2024/02/13 09:04:48;;;;;;;34.63;31.30;;;5.50;99.90;;;;;;5159248;27;20841;-77
2024/02/13 09:07:16;;;;;;;36.13;32.73;;;5.50;99.90;;;;;;5159596;27;20463;-78
2024/02/13 09:09:45;;;;;;;34.73;31.57;;;5.50;99.90;;;;;;5160613;27;20448;-77
2024/02/13 09:12:14;;;;;;;34.10;31.00;;;5.60;99.90;;;;;;5178181;27;20462;-78
2024/02/13 09:14:43;;;;;;;32.57;29.57;;;5.60;99.90;;;;;;5178224;27;20448;-77
2024/02/13 09:17:12;;;;;;;34.67;31.13;;;5.70;99.90;;;;;;5159083;27;20445;-77
2024/02/13 09:19:42;;;;;;;32.93;29.73;;;5.70;99.90;;;;;;5178374;27;20913;-78
2024/02/13 09:22:13;;;;;;;32.23;29.33;;;5.80;99.90;;;;;;5180348;27;20449;-79
2024/02/13 09:24:49;;;;;;;33.73;30.37;;;5.80;99.90;;;;;;5160715;27;20460;-78
2024/02/13 09:27:21;;;;;;;31.50;28.60;;;5.80;99.90;;;;;;5160479;27;20551;-78
2024/02/13 09:29:51;;;;;;;29.97;27.17;;;5.90;99.90;;;;;;5160500;27;20447;-78
2024/02/13 09:32:19;;;;;;;31.03;28.10;;;5.90;99.90;;;;;;5160151;27;20465;-78
2024/02/13 09:34:47;;;;;;;28.97;26.37;;;6.00;99.90;;;;;;5159810;27;20464;-79
2024/02/13 09:37:16;;;;;;;29.67;26.90;;;6.00;99.90;;;;;;5159466;27;20817;-78
2024/02/13 09:39:44;;;;;;;28.47;25.80;;;6.00;99.90;;;;;;5162744;27;20798;-78
2024/02/13 09:42:16;;;;;;;27.67;25.23;;;6.00;99.90;;;;;;5171648;27;20454;-78
2024/02/13 09:44:47;;;;;;;28.63;26.03;;;6.10;99.90;;;;;;5170889;27;20462;-78
2024/02/13 09:47:16;;;;;;;28.13;25.73;;;6.10;99.90;;;;;;5158599;27;20978;-78
2024/02/13 09:49:47;;;;;;;30.30;27.50;;;6.10;99.90;;;;;;5158921;27;20968;-78
2024/02/13 09:52:17;;;;;;;32.07;26.00;;;6.10;99.90;;;;;;5159411;27;20541;-77
2024/02/13 09:54:47;;;;;;;28.70;26.10;;;6.20;99.90;;;;;;5158838;27;20490;-78
2024/02/13 09:57:17;;;;;;;28.23;25.60;;;6.20;99.90;;;;;;5158963;27;20489;-78
2024/02/13 09:59:46;;;;;;;27.30;24.60;;;6.20;99.90;;;;;;5159081;27;20976;-77
2024/02/13 10:02:16;;;;;;;28.13;25.37;;;6.30;99.90;;;;;;5158537;27;20498;-77
2024/02/13 10:04:45;;;;;;;28.37;25.67;;;6.30;99.90;;;;;;5158350;27;20987;-77
2024/02/13 10:07:14;;;;;;;28.10;25.70;;;6.30;99.90;;;;;;5159171;27;20453;-78
2024/02/13 10:09:44;;;;;;;25.53;23.33;;;6.40;99.90;;;;;;5161389;27;20451;-77
2024/02/13 10:12:14;;;;;;;27.27;24.63;;;6.40;99.90;;;;;;5163545;27;20500;-78
2024/02/13 10:14:42;;;;;;;25.77;23.50;;;6.40;99.90;;;;;;5163035;27;20449;-77
2024/02/13 10:17:12;;;;;;;26.20;23.90;;;6.50;99.90;;;;;;5164499;27;20491;-79
2024/02/13 10:19:41;;;;;;;27.00;24.47;;;6.50;99.90;;;;;;5184658;27;20434;-78
2024/02/13 10:22:11;;;;;;;24.90;22.43;;;6.50;99.90;;;;;;5184203;27;20488;-78
2024/02/13 10:24:39;;;;;;;23.03;20.83;;;6.60;99.90;;;;;;5164729;27;20467;-78
2024/02/13 10:27:10;;;;;;;24.87;22.67;;;6.60;99.90;;;;;;5164679;27;20498;-78
2024/02/13 10:29:43;;;;;;;25.20;22.90;;;6.60;99.90;;;;;;5164200;27;20442;-77
2024/02/13 10:32:12;;;;;;;23.67;21.63;;;6.70;99.90;;;;;;5181691;27;20478;-77
2024/02/13 10:34:41;;;;;;;22.90;20.77;;;6.70;99.90;;;;;;5163189;27;20443;-78
2024/02/13 10:37:10;;;;;;;23.67;21.67;;;6.70;99.90;;;;;;5162660;27;21027;-78
2024/02/13 10:39:43;;;;;;;23.50;21.40;;;6.80;99.90;;;;;;5163082;27;20469;-78
2024/02/13 10:42:15;;;;;;;23.40;21.20;;;6.80;99.90;;;;;;5163069;27;20446;-77
2024/02/13 10:44:49;;;;;;;22.70;20.50;;;6.80;99.90;;;;;;5162870;27;20534;-77
2024/02/13 10:47:22;;;;;;;22.77;20.50;;;6.90;99.90;;;;;;5162351;27;20816;-77
2024/02/13 10:49:53;;;;;;;22.70;20.60;;;6.90;99.90;;;;;;5163581;27;20515;-78
2024/02/13 10:52:24;;;;;;;22.50;20.47;;;6.90;99.90;;;;;;5162881;27;20458;-77
2024/02/13 10:54:53;;;;;;;23.30;21.00;;;7.00;99.90;;;;;;5163640;27;20870;-78
2024/02/13 10:57:24;;;;;;;21.73;19.70;;;7.00;99.90;;;;;;5163212;27;20819;-77
2024/02/13 10:59:53;;;;;;;21.10;19.20;;;7.00;99.90;;;;;;5163565;27;20529;-78
2024/02/13 11:02:23;;;;;;;22.37;20.17;;;7.00;99.90;;;;;;5162928;27;20452;-77
2024/02/13 11:04:55;;;;;;;21.40;19.30;;;7.10;99.90;;;;;;5160875;27;20494;-78
2024/02/13 11:07:24;;;;;;;21.80;19.60;;;7.10;99.90;;;;;;5179741;27;20428;-77
2024/02/13 11:09:55;;;;;;;21.50;19.40;;;7.20;99.90;;;;;;5160815;27;20443;-78
2024/02/13 11:12:24;;;;;;;21.67;19.67;;;7.20;99.90;;;;;;5179888;27;20827;-77
2024/02/13 11:14:53;;;;;;;21.60;19.70;;;7.20;99.90;;;;;;5160878;27;20482;-78
2024/02/13 11:17:30;;;;;;;20.30;18.40;;;7.30;99.90;;;;;;5179442;27;20790;-77
2024/02/13 11:19:59;;;;;;;19.23;17.37;;;7.30;99.90;;;;;;5178317;27;20430;-77
2024/02/13 11:22:36;;;;;;;21.30;19.30;;;7.40;99.90;;;;;;5159593;27;20494;-77
2024/02/13 11:25:08;;;;;;;19.70;17.90;;;7.40;99.90;;;;;;5160314;27;20896;-80
2024/02/13 11:27:40;;;;;;;21.67;19.37;;;7.50;99.90;;;;;;5178620;27;20958;-75
2024/02/13 11:30:09;;;;;;;20.60;18.60;;;7.60;99.90;;;;;;5177914;27;20420;-76
2024/02/13 11:32:44;;;;;;;19.93;18.03;;;7.60;99.90;;;;;;5159442;27;20460;-76
2024/02/13 11:35:17;;;;;;;21.80;19.60;;;7.70;99.90;;;;;;5159481;27;20555;-77
2024/02/13 11:37:48;;;;;;;18.13;16.57;;;7.70;99.90;;;;;;5163652;27;20452;-79
2024/02/13 11:40:21;;;;;;;19.77;18.07;;;7.70;99.90;;;;;;5160330;27;20435;-77
2024/02/13 11:42:49;;;;;;;18.37;16.70;;;7.80;99.90;;;;;;5159203;27;20440;-77
2024/02/13 11:45:21;;;;;;;18.43;16.90;;;7.80;99.90;;;;;;5159017;27;21059;-79
2024/02/13 11:47:52;;;;;;;18.73;17.10;;;7.90;99.90;;;;;;5158878;27;20487;-77
2024/02/13 11:50:21;;;;;;;19.30;17.60;;;7.90;99.90;;;;;;5159627;27;20442;-77
2024/02/13 11:52:51;;;;;;;18.67;16.77;;;7.90;99.90;;;;;;5158882;27;20478;-77
2024/02/13 11:55:20;;;;;;;17.87;16.37;;;8.00;99.90;;;;;;5158776;27;20464;-76
2024/02/13 11:57:50;;;;;;;17.93;16.10;;;8.00;99.90;;;;;;5158928;27;20555;-77
2024/02/13 12:00:22;;;;;;;18.77;16.77;;;8.10;99.90;;;;;;5159084;27;20456;-77
2024/02/13 12:02:54;;;;;;;16.53;15.03;;;8.20;99.90;;;;;;5158647;27;20462;-77
2024/02/13 12:05:24;;;;;;;17.30;15.70;;;8.20;99.90;;;;;;5158339;27;20476;-76
2024/02/13 12:07:53;;;;;;;16.17;13.97;;;8.20;99.90;;;;;;5158346;27;20476;-76
2024/02/13 12:10:22;;;;;;;17.20;15.67;;;8.30;99.90;;;;;;5177505;27;20428;-76
2024/02/13 12:12:52;;;;;;;15.73;14.13;;;8.30;99.90;;;;;;5159299;27;20509;-78
2024/02/13 12:15:22;;;;;;;16.73;14.93;;;8.40;99.90;;;;;;5177903;27;20960;-77
2024/02/13 12:17:57;;;;;;;14.10;12.70;;;8.40;99.90;;;;;;5158847;27;20436;-76
2024/02/13 12:20:29;;;;;;;17.00;14.13;;;8.50;99.90;;;;;;5159067;27;20501;-77
2024/02/13 12:22:59;;;;;;;15.17;13.73;;;8.50;99.90;;;;;;5158743;27;20444;-78
2024/02/13 12:25:28;;;;;;;13.87;12.47;;;8.60;99.90;;;;;;5158956;27;20525;-77
2024/02/13 12:28:01;;;;;;;13.53;12.33;;;8.60;99.90;;;;;;5159187;27;20547;-78
2024/02/13 12:30:29;;;;;;;14.20;12.77;;;8.60;99.90;;;;;;5159210;27;20461;-78
2024/02/13 12:33:06;;;;;;;15.10;13.50;;;8.70;99.90;;;;;;5158483;27;20448;-77
2024/02/13 12:35:36;;;;;;;14.20;12.83;;;8.80;99.90;;;;;;5159220;27;20893;-77
2024/02/13 12:38:12;;;;;;;15.10;12.33;;;8.80;99.90;;;;;;5159524;27;21011;-78
2024/02/13 12:40:41;;;;;;;14.60;13.20;;;8.80;99.90;;;;;;5177862;27;20456;-78
2024/02/13 12:43:11;;;;;;;15.07;13.13;;;8.80;99.90;;;;;;5157976;27;20437;-76
2024/02/13 12:45:42;;;;;;;15.27;13.77;;;8.80;99.90;;;;;;5159365;27;20524;-78
2024/02/13 12:48:12;;;;;;;12.77;11.53;;;8.90;99.90;;;;;;5159054;27;20444;-79
2024/02/13 12:50:41;;;;;;;14.53;12.00;;;8.90;99.90;;;;;;5160009;27;20523;-78
2024/02/13 12:53:11;;;;;;;12.97;11.73;;;8.90;99.90;;;;;;5159065;27;21010;-78